sensor_id;sensor_type;location;lat;lon;timestamp;pressure;altitude;pressure_sealevel;temperature;humidity
20013;BME280;10167;42.852;23.042;2022-11-24T00:02:10;93828.19;;;6.17;100.00
20013;BME280;10167;42.852;23.042;2022-11-24T00:04:39;93826.66;;;6.22;100.00
20013;BME280;10167;42.852;23.042;2022-11-24T00:07:10;93826.25;;;6.13;100.00
20013;BME280;10167;42.852;23.042;2022-11-24T00:09:40;93828.00;;;6.07;100.00
20013;BME280;10167;42.852;23.042;2022-11-24T00:12:09;93824.94;;;5.99;100.00
20013;BME280;10167;42.852;23.042;2022-11-24T00:14:38;93829.16;;;6.00;100.00
20013;BME280;10167;42.852;23.042;2022-11-24T00:17:08;93830.44;;;5.97;100.00
20013;BME280;10167;42.852;23.042;2022-11-24T00:19:37;93831.25;;;5.98;100.00
20013;BME280;10167;42.852;23.042;2022-11-24T00:22:06;93822.78;;;5.96;100.00
20013;BME280;10167;42.852;23.042;2022-11-24T00:24:37;93832.38;;;5.90;100.00
20013;BME280;10167;42.852;23.042;2022-11-24T00:27:06;93828.72;;;5.91;100.00
20013;BME280;10167;42.852;23.042;2022-11-24T00:29:35;93827.56;;;5.87;100.00
20013;BME280;10167;42.852;23.042;2022-11-24T00:32:04;93830.19;;;5.99;100.00
20013;BME280;10167;42.852;23.042;2022-11-24T00:34:34;93832.16;;;5.92;100.00
20013;BME280;10167;42.852;23.042;2022-11-24T00:37:03;93838.44;;;5.91;100.00
20013;BME280;10167;42.852;23.042;2022-11-24T00:39:32;93838.00;;;5.82;100.00
20013;BME280;10167;42.852;23.042;2022-11-24T00:42:03;93839.81;;;5.81;100.00
20013;BME280;10167;42.852;23.042;2022-11-24T00:44:32;93838.00;;;5.82;100.00
20013;BME280;10167;42.852;23.042;2022-11-24T00:47:01;93842.66;;;5.80;100.00
20013;BME280;10167;42.852;23.042;2022-11-24T00:49:31;93846.44;;;5.84;100.00
20013;BME280;10167;42.852;23.042;2022-11-24T00:52:00;93850.78;;;5.90;100.00
20013;BME280;10167;42.852;23.042;2022-11-24T00:54:29;93848.94;;;5.91;100.00
20013;BME280;10167;42.852;23.042;2022-11-24T00:56:59;93840.69;;;5.99;100.00
20013;BME280;10167;42.852;23.042;2022-11-24T00:59:30;93850.88;;;5.95;100.00
20013;BME280;10167;42.852;23.042;2022-11-24T01:02:00;93860.84;;;5.93;100.00
20013;BME280;10167;42.852;23.042;2022-11-24T01:04:30;93854.16;;;6.02;100.00
20013;BME280;10167;42.852;23.042;2022-11-24T01:06:59;93856.13;;;6.07;100.00
20013;BME280;10167;42.852;23.042;2022-11-24T01:09:29;93856.53;;;6.15;100.00
20013;BME280;10167;42.852;23.042;2022-11-24T01:11:58;93854.38;;;6.12;100.00
20013;BME280;10167;42.852;23.042;2022-11-24T01:14:32;93852.91;;;6.33;100.00
20013;BME280;10167;42.852;23.042;2022-11-24T01:17:02;93864.88;;;6.41;100.00
20013;BME280;10167;42.852;23.042;2022-11-24T01:19:31;93861.53;;;6.45;100.00
20013;BME280;10167;42.852;23.042;2022-11-24T01:22:00;93859.00;;;6.50;100.00
20013;BME280;10167;42.852;23.042;2022-11-24T01:24:30;93860.38;;;6.53;100.00
20013;BME280;10167;42.852;23.042;2022-11-24T01:26:59;93863.22;;;6.51;100.00
20013;BME280;10167;42.852;23.042;2022-11-24T01:29:29;93868.72;;;6.50;100.00
20013;BME280;10167;42.852;23.042;2022-11-24T01:31:59;93859.81;;;6.51;100.00
20013;BME280;10167;42.852;23.042;2022-11-24T01:34:29;93861.41;;;6.52;100.00
20013;BME280;10167;42.852;23.042;2022-11-24T01:36:59;93861.41;;;6.52;100.00
20013;BME280;10167;42.852;23.042;2022-11-24T01:39:28;93862.81;;;6.43;100.00
20013;BME280;10167;42.852;23.042;2022-11-24T01:42:00;93856.16;;;6.52;100.00
20013;BME280;10167;42.852;23.042;2022-11-24T01:44:30;93859.25;;;6.49;100.00
20013;BME280;10167;42.852;23.042;2022-11-24T01:47:03;93866.09;;;6.50;100.00
20013;BME280;10167;42.852;23.042;2022-11-24T01:49:37;93860.97;;;6.43;100.00
20013;BME280;10167;42.852;23.042;2022-11-24T01:52:09;93862.81;;;6.43;100.00
20013;BME280;10167;42.852;23.042;2022-11-24T01:54:42;93863.06;;;6.41;100.00
20013;BME280;10167;42.852;23.042;2022-11-24T01:57:17;93863.06;;;6.41;100.00
20013;BME280;10167;42.852;23.042;2022-11-24T01:59:50;93865.91;;;6.40;100.00
20013;BME280;10167;42.852;23.042;2022-11-24T02:02:27;93864.09;;;6.40;100.00
20013;BME280;10167;42.852;23.042;2022-11-24T02:05:01;93865.59;;;6.36;100.00
20013;BME280;10167;42.852;23.042;2022-11-24T02:07:32;93869.66;;;6.44;100.00
20013;BME280;10167;42.852;23.042;2022-11-24T02:10:03;93866.56;;;6.47;100.00
20013;BME280;10167;42.852;23.042;2022-11-24T02:12:36;93866.91;;;6.50;100.00
20013;BME280;10167;42.852;23.042;2022-11-24T02:15:26;93865.63;;;6.53;100.00
20013;BME280;10167;42.852;23.042;2022-11-24T02:17:59;93870.16;;;6.57;100.00
20013;BME280;10167;42.852;23.042;2022-11-24T02:20:28;93860.63;;;6.68;100.00
20013;BME280;10167;42.852;23.042;2022-11-24T02:23:00;93866.53;;;6.75;100.00
20013;BME280;10167;42.852;23.042;2022-11-24T02:25:38;93874.34;;;6.70;100.00
20013;BME280;10167;42.852;23.042;2022-11-24T02:28:13;93871.31;;;6.62;100.00
20013;BME280;10167;42.852;23.042;2022-11-24T02:30:43;93865.69;;;6.58;100.00
20013;BME280;10167;42.852;23.042;2022-11-24T02:33:13;93872.72;;;6.52;100.00
20013;BME280;10167;42.852;23.042;2022-11-24T02:35:43;93880.28;;;6.49;100.00
20013;BME280;10167;42.852;23.042;2022-11-24T02:38:12;93885.69;;;6.42;100.00
20013;BME280;10167;42.852;23.042;2022-11-24T02:40:44;93884.91;;;6.42;100.00
20013;BME280;10167;42.852;23.042;2022-11-24T02:43:19;93885.81;;;6.36;100.00
20013;BME280;10167;42.852;23.042;2022-11-24T02:45:49;93888.22;;;6.37;100.00
20013;BME280;10167;42.852;23.042;2022-11-24T02:48:19;93886.38;;;6.38;100.00
20013;BME280;10167;42.852;23.042;2022-11-24T02:50:48;93886.50;;;6.43;100.00
20013;BME280;10167;42.852;23.042;2022-11-24T02:53:17;93886.22;;;6.44;100.00
20013;BME280;10167;42.852;23.042;2022-11-24T02:55:49;93882.91;;;6.49;100.00
20013;BME280;10167;42.852;23.042;2022-11-24T02:58:20;93889.47;;;6.63;100.00
20013;BME280;10167;42.852;23.042;2022-11-24T03:00:49;93889.56;;;6.68;100.00
20013;BME280;10167;42.852;23.042;2022-11-24T03:03:24;93889.31;;;6.70;100.00
20013;BME280;10167;42.852;23.042;2022-11-24T03:05:53;93886.78;;;6.75;100.00
20013;BME280;10167;42.852;23.042;2022-11-24T03:08:23;93878.91;;;6.75;100.00
20013;BME280;10167;42.852;23.042;2022-11-24T03:10:55;93884.47;;;6.78;100.00
20013;BME280;10167;42.852;23.042;2022-11-24T03:13:25;93885.03;;;6.80;100.00
20013;BME280;10167;42.852;23.042;2022-11-24T03:15:55;93892.22;;;6.85;100.00
20013;BME280;10167;42.852;23.042;2022-11-24T03:18:24;93888.22;;;6.82;100.00
20013;BME280;10167;42.852;23.042;2022-11-24T03:20:58;93900.34;;;6.83;100.00
20013;BME280;10167;42.852;23.042;2022-11-24T03:23:27;93893.81;;;6.86;100.00
20013;BME280;10167;42.852;23.042;2022-11-24T03:26:06;93895.25;;;6.93;100.00
20013;BME280;10167;42.852;23.042;2022-11-24T03:28:37;93897.47;;;7.02;100.00
20013;BME280;10167;42.852;23.042;2022-11-24T03:31:07;93900.59;;;6.99;100.00
20013;BME280;10167;42.852;23.042;2022-11-24T03:33:37;93894.53;;;6.98;100.00
20013;BME280;10167;42.852;23.042;2022-11-24T03:36:07;93893.25;;;7.01;100.00
20013;BME280;10167;42.852;23.042;2022-11-24T03:38:43;93895.97;;;7.06;100.00
20013;BME280;10167;42.852;23.042;2022-11-24T03:41:12;93894.72;;;7.08;100.00
20013;BME280;10167;42.852;23.042;2022-11-24T03:43:43;93899.56;;;7.16;100.00
20013;BME280;10167;42.852;23.042;2022-11-24T03:46:12;93897.25;;;7.20;100.00
20013;BME280;10167;42.852;23.042;2022-11-24T03:48:41;93897.31;;;7.25;100.00
20013;BME280;10167;42.852;23.042;2022-11-24T03:51:11;93906.25;;;7.24;100.00
20013;BME280;10167;42.852;23.042;2022-11-24T03:53:40;93910.56;;;7.30;100.00
20013;BME280;10167;42.852;23.042;2022-11-24T03:56:09;93910.25;;;7.26;100.00
20013;BME280;10167;42.852;23.042;2022-11-24T03:58:38;93916.88;;;7.29;100.00
20013;BME280;10167;42.852;23.042;2022-11-24T04:01:09;93916.94;;;7.34;100.00
20013;BME280;10167;42.852;23.042;2022-11-24T04:03:38;93914.81;;;7.31;100.00
20013;BME280;10167;42.852;23.042;2022-11-24T04:06:19;93923.00;;;7.35;100.00
20013;BME280;10167;42.852;23.042;2022-11-24T04:08:48;93920.94;;;7.37;100.00
20013;BME280;10167;42.852;23.042;2022-11-24T04:11:17;93920.13;;;7.36;100.00
20013;BME280;10167;42.852;23.042;2022-11-24T04:14:00;93933.63;;;7.40;100.00
20013;BME280;10167;42.852;23.042;2022-11-24T04:16:31;93930.59;;;7.48;100.00
20013;BME280;10167;42.852;23.042;2022-11-24T04:19:00;93933.22;;;7.48;100.00
20013;BME280;10167;42.852;23.042;2022-11-24T04:21:29;93929.56;;;7.49;100.00
20013;BME280;10167;42.852;23.042;2022-11-24T04:23:58;93935.19;;;7.57;100.00
20013;BME280;10167;42.852;23.042;2022-11-24T04:26:28;93927.06;;;7.59;100.00
20013;BME280;10167;42.852;23.042;2022-11-24T04:28:57;93934.09;;;7.53;100.00
20013;BME280;10167;42.852;23.042;2022-11-24T04:31:26;93927.06;;;7.59;100.00
20013;BME280;10167;42.852;23.042;2022-11-24T04:33:57;93930.03;;;7.62;100.00
20013;BME280;10167;42.852;23.042;2022-11-24T04:36:26;93938.50;;;7.64;100.00
20013;BME280;10167;42.852;23.042;2022-11-24T04:38:55;93944.78;;;7.63;100.00
20013;BME280;10167;42.852;23.042;2022-11-24T04:42:13;93944.84;;;7.69;100.00
20013;BME280;10167;42.852;23.042;2022-11-24T04:44:43;93949.09;;;7.70;100.00
20013;BME280;10167;42.852;23.042;2022-11-24T04:47:14;93951.41;;;7.66;100.00
20013;BME280;10167;42.852;23.042;2022-11-24T04:49:47;93956.50;;;7.73;100.00
20013;BME280;10167;42.852;23.042;2022-11-24T04:52:17;93961.06;;;7.77;100.00
20013;BME280;10167;42.852;23.042;2022-11-24T04:54:47;93963.19;;;7.80;100.00
20013;BME280;10167;42.852;23.042;2022-11-24T04:57:18;93961.91;;;7.83;100.00
20013;BME280;10167;42.852;23.042;2022-11-24T04:59:48;93967.44;;;7.81;100.00
20013;BME280;10167;42.852;23.042;2022-11-24T05:02:17;93969.91;;;7.88;100.00
20013;BME280;10167;42.852;23.042;2022-11-24T05:04:48;93973.34;;;7.88;100.00
20013;BME280;10167;42.852;23.042;2022-11-24T05:07:18;93967.91;;;7.95;100.00
20013;BME280;10167;42.852;23.042;2022-11-24T05:09:47;93972.69;;;7.98;100.00
20013;BME280;10167;42.852;23.042;2022-11-24T05:12:34;93970.34;;;8.01;100.00
20013;BME280;10167;42.852;23.042;2022-11-24T05:15:05;93982.75;;;8.01;100.00
20013;BME280;10167;42.852;23.042;2022-11-24T05:17:36;93987.53;;;8.04;100.00
20013;BME280;10167;42.852;23.042;2022-11-24T05:20:07;93983.44;;;8.13;100.00
20013;BME280;10167;42.852;23.042;2022-11-24T05:22:37;93997.69;;;8.12;100.00
20013;BME280;10167;42.852;23.042;2022-11-24T05:25:09;93994.94;;;8.07;100.00
20013;BME280;10167;42.852;23.042;2022-11-24T05:27:39;93996.97;;;8.00;100.00
20013;BME280;10167;42.852;23.042;2022-11-24T05:30:10;93999.53;;;7.95;100.00
20013;BME280;10167;42.852;23.042;2022-11-24T05:32:39;94007.91;;;7.92;100.00
20013;BME280;10167;42.852;23.042;2022-11-24T05:35:10;94007.91;;;7.92;100.00
20013;BME280;10167;42.852;23.042;2022-11-24T05:37:40;94010.31;;;7.93;100.00
20013;BME280;10167;42.852;23.042;2022-11-24T05:40:09;94013.50;;;7.95;100.00
20013;BME280;10167;42.852;23.042;2022-11-24T05:42:39;94014.53;;;7.94;100.00
20013;BME280;10167;42.852;23.042;2022-11-24T05:45:21;94016.06;;;7.90;100.00
20013;BME280;10167;42.852;23.042;2022-11-24T05:47:51;94018.44;;;7.92;100.00
20013;BME280;10167;42.852;23.042;2022-11-24T05:50:21;94020.78;;;7.88;100.00
20013;BME280;10167;42.852;23.042;2022-11-24T05:52:51;94017.75;;;7.80;100.00
20013;BME280;10167;42.852;23.042;2022-11-24T05:55:20;94028.47;;;7.73;100.00
20013;BME280;10167;42.852;23.042;2022-11-24T05:57:56;94027.03;;;7.65;100.00
20013;BME280;10167;42.852;23.042;2022-11-24T06:00:26;94024.59;;;7.47;100.00
20013;BME280;10167;42.852;23.042;2022-11-24T06:02:56;94023.81;;;7.30;100.00
20013;BME280;10167;42.852;23.042;2022-11-24T06:05:28;94033.25;;;7.43;100.00
20013;BME280;10167;42.852;23.042;2022-11-24T06:07:58;94037.88;;;7.52;100.00
20013;BME280;10167;42.852;23.042;2022-11-24T06:10:28;94039.53;;;7.58;100.00
20013;BME280;10167;42.852;23.042;2022-11-24T06:13:12;94044.34;;;7.61;100.00
20013;BME280;10167;42.852;23.042;2022-11-24T06:15:42;94045.84;;;7.57;100.00
20013;BME280;10167;42.852;23.042;2022-11-24T06:18:11;94045.78;;;7.69;100.00
20013;BME280;10167;42.852;23.042;2022-11-24T06:20:42;94057.75;;;7.43;100.00
20013;BME280;10167;42.852;23.042;2022-11-24T06:23:31;94058.91;;;7.36;100.00
20013;BME280;10167;42.852;23.042;2022-11-24T06:26:01;94066.97;;;7.46;100.00
20013;BME280;10167;42.852;23.042;2022-11-24T06:28:30;94074.28;;;7.55;100.00
20013;BME280;10167;42.852;23.042;2022-11-24T06:31:00;94081.56;;;7.65;100.00
20013;BME280;10167;42.852;23.042;2022-11-24T06:33:30;94093.94;;;7.64;100.00
20013;BME280;10167;42.852;23.042;2022-11-24T06:36:03;94097.59;;;7.63;100.00
20013;BME280;10167;42.852;23.042;2022-11-24T06:38:34;94101.25;;;7.62;100.00
20013;BME280;10167;42.852;23.042;2022-11-24T06:41:05;94099.03;;;7.71;100.00
20013;BME280;10167;42.852;23.042;2022-11-24T06:43:35;94117.00;;;7.74;100.00
20013;BME280;10167;42.852;23.042;2022-11-24T06:46:05;94118.22;;;7.83;100.00
20013;BME280;10167;42.852;23.042;2022-11-24T06:48:35;94119.59;;;7.86;100.00
20013;BME280;10167;42.852;23.042;2022-11-24T06:51:08;94124.78;;;7.97;100.00
20013;BME280;10167;42.852;23.042;2022-11-24T06:53:39;94139.06;;;8.01;100.00
20013;BME280;10167;42.852;23.042;2022-11-24T06:56:10;94137.97;;;7.97;100.00
20013;BME280;10167;42.852;23.042;2022-11-24T06:58:44;94139.41;;;8.05;100.00
20013;BME280;10167;42.852;23.042;2022-11-24T07:01:14;94139.81;;;7.97;100.00
20013;BME280;10167;42.852;23.042;2022-11-24T07:03:44;94152.00;;;7.86;100.00
20013;BME280;10167;42.852;23.042;2022-11-24T07:06:36;94158.78;;;7.82;100.00
20013;BME280;10167;42.852;23.042;2022-11-24T07:09:06;94163.53;;;7.69;100.00
20013;BME280;10167;42.852;23.042;2022-11-24T07:11:37;94160.38;;;7.67;100.00
20013;BME280;10167;42.852;23.042;2022-11-24T07:14:09;94164.34;;;7.69;100.00
20013;BME280;10167;42.852;23.042;2022-11-24T07:16:39;94165.53;;;7.61;100.00
20013;BME280;10167;42.852;23.042;2022-11-24T07:19:11;94167.53;;;7.54;100.00
20013;BME280;10167;42.852;23.042;2022-11-24T07:21:42;94180.19;;;7.57;100.00
20013;BME280;10167;42.852;23.042;2022-11-24T07:24:14;94178.06;;;7.54;100.00
20013;BME280;10167;42.852;23.042;2022-11-24T07:26:54;94182.34;;;7.44;100.00
20013;BME280;10167;42.852;23.042;2022-11-24T07:29:24;94180.25;;;7.46;100.00
20013;BME280;10167;42.852;23.042;2022-11-24T07:31:57;94184.72;;;7.45;100.00
20013;BME280;10167;42.852;23.042;2022-11-24T07:34:32;94182.94;;;7.62;100.00
20013;BME280;10167;42.852;23.042;2022-11-24T07:37:02;94189.69;;;7.58;100.00
20013;BME280;10167;42.852;23.042;2022-11-24T07:39:32;94193.75;;;7.49;100.00
20013;BME280;10167;42.852;23.042;2022-11-24T07:42:01;94192.94;;;7.49;100.00
20013;BME280;10167;42.852;23.042;2022-11-24T07:44:31;94202.69;;;7.48;100.00
20013;BME280;10167;42.852;23.042;2022-11-24T07:47:01;94204.41;;;7.54;100.00
20013;BME280;10167;42.852;23.042;2022-11-24T07:49:31;94209.91;;;7.53;100.00
20013;BME280;10167;42.852;23.042;2022-11-24T07:52:02;94213.19;;;7.60;100.00
20013;BME280;10167;42.852;23.042;2022-11-24T07:54:32;94215.94;;;7.65;100.00
20013;BME280;10167;42.852;23.042;2022-11-24T07:57:01;94212.13;;;7.73;100.00
20013;BME280;10167;42.852;23.042;2022-11-24T07:59:31;94222.88;;;7.71;100.00
20013;BME280;10167;42.852;23.042;2022-11-24T08:02:00;94228.44;;;7.86;100.00
20013;BME280;10167;42.852;23.042;2022-11-24T08:04:32;94230.56;;;7.73;100.00
20013;BME280;10167;42.852;23.042;2022-11-24T08:07:03;94237.88;;;7.71;100.00
20013;BME280;10167;42.852;23.042;2022-11-24T08:09:35;94243.34;;;7.52;100.00
20013;BME280;10167;42.852;23.042;2022-11-24T08:12:05;94233.16;;;7.56;100.00
20013;BME280;10167;42.852;23.042;2022-11-24T08:14:34;94239.78;;;7.47;100.00
20013;BME280;10167;42.852;23.042;2022-11-24T08:17:04;94251.63;;;7.44;100.00
20013;BME280;10167;42.852;23.042;2022-11-24T08:19:34;94247.72;;;7.35;100.00
20013;BME280;10167;42.852;23.042;2022-11-24T08:22:04;94259.06;;;7.24;100.00
20013;BME280;10167;42.852;23.042;2022-11-24T08:24:34;94256.72;;;7.11;100.00
20013;BME280;10167;42.852;23.042;2022-11-24T08:27:04;94260.25;;;7.16;100.00
20013;BME280;10167;42.852;23.042;2022-11-24T08:29:35;94268.81;;;7.23;100.00
20013;BME280;10167;42.852;23.042;2022-11-24T08:32:04;94270.09;;;7.21;100.00
20013;BME280;10167;42.852;23.042;2022-11-24T08:34:35;94276.38;;;7.20;100.00
20013;BME280;10167;42.852;23.042;2022-11-24T08:37:06;94280.28;;;7.17;100.00
20013;BME280;10167;42.852;23.042;2022-11-24T08:39:37;94272.59;;;7.27;100.00
20013;BME280;10167;42.852;23.042;2022-11-24T08:42:06;94281.28;;;7.28;100.00
20013;BME280;10167;42.852;23.042;2022-11-24T08:44:35;94275.59;;;7.19;100.00
20013;BME280;10167;42.852;23.042;2022-11-24T08:47:19;94282.69;;;7.19;100.00
20013;BME280;10167;42.852;23.042;2022-11-24T08:49:57;94290.00;;;7.17;100.00
20013;BME280;10167;42.852;23.042;2022-11-24T08:52:30;94290.69;;;7.12;100.00
20013;BME280;10167;42.852;23.042;2022-11-24T08:55:00;94293.44;;;7.06;100.00
20013;BME280;10167;42.852;23.042;2022-11-24T08:57:29;94295.03;;;7.07;100.00
20013;BME280;10167;42.852;23.042;2022-11-24T08:59:59;94293.88;;;6.91;100.00
20013;BME280;10167;42.852;23.042;2022-11-24T09:02:30;94296.28;;;6.92;100.00
20013;BME280;10167;42.852;23.042;2022-11-24T09:05:00;94290.81;;;6.94;100.00
20013;BME280;10167;42.852;23.042;2022-11-24T09:07:33;94305.66;;;6.88;100.00
20013;BME280;10167;42.852;23.042;2022-11-24T09:10:03;94309.56;;;6.86;100.00
20013;BME280;10167;42.852;23.042;2022-11-24T09:12:33;94313.66;;;6.70;100.00
20013;BME280;10167;42.852;23.042;2022-11-24T09:15:06;94313.09;;;6.80;100.00
20013;BME280;10167;42.852;23.042;2022-11-24T09:17:35;94307.41;;;6.83;100.00
20013;BME280;10167;42.852;23.042;2022-11-24T09:20:05;94313.56;;;6.77;100.00
20013;BME280;10167;42.852;23.042;2022-11-24T09:22:55;94307.25;;;6.66;100.00
20013;BME280;10167;42.852;23.042;2022-11-24T09:25:25;94315.94;;;6.67;100.00
20013;BME280;10167;42.852;23.042;2022-11-24T09:27:58;94314.91;;;6.68;100.00
20013;BME280;10167;42.852;23.042;2022-11-24T09:30:27;94328.19;;;6.61;100.00
20013;BME280;10167;42.852;23.042;2022-11-24T09:32:57;94315.84;;;6.62;100.00
20013;BME280;10167;42.852;23.042;2022-11-24T09:35:26;94326.44;;;6.55;100.00
20013;BME280;10167;42.852;23.042;2022-11-24T09:37:57;94320.75;;;6.70;100.00
20013;BME280;10167;42.852;23.042;2022-11-24T09:40:26;94314.22;;;6.61;100.00
20013;BME280;10167;42.852;23.042;2022-11-24T09:42:59;94313.88;;;6.57;100.00
20013;BME280;10167;42.852;23.042;2022-11-24T09:45:48;94320.66;;;6.65;100.00
20013;BME280;10167;42.852;23.042;2022-11-24T09:48:39;94329.25;;;6.83;100.00
20013;BME280;10167;42.852;23.042;2022-11-24T09:51:11;94330.63;;;6.86;100.00
20013;BME280;10167;42.852;23.042;2022-11-24T09:53:59;94330.41;;;6.87;100.00
20013;BME280;10167;42.852;23.042;2022-11-24T09:56:33;94333.69;;;6.83;100.00
20013;BME280;10167;42.852;23.042;2022-11-24T09:59:06;94325.22;;;6.81;100.00
20013;BME280;10167;42.852;23.042;2022-11-24T10:01:42;94337.13;;;6.83;100.00
20013;BME280;10167;42.852;23.042;2022-11-24T10:04:15;94337.50;;;6.99;100.00
20013;BME280;10167;42.852;23.042;2022-11-24T10:07:19;94334.28;;;6.85;100.00
20013;BME280;10167;42.852;23.042;2022-11-24T10:10:01;94332.47;;;6.85;100.00
20013;BME280;10167;42.852;23.042;2022-11-24T10:12:46;94327.50;;;6.66;100.00
20013;BME280;10167;42.852;23.042;2022-11-24T10:15:24;94332.09;;;6.82;100.00
20013;BME280;10167;42.852;23.042;2022-11-24T10:21:11;94325.84;;;7.06;100.00
20013;BME280;10167;42.852;23.042;2022-11-24T10:23:55;94323.41;;;7.05;100.00
20013;BME280;10167;42.852;23.042;2022-11-24T10:26:34;94329.25;;;6.95;100.00
20013;BME280;10167;42.852;23.042;2022-11-24T10:29:14;94324.69;;;7.02;100.00
20013;BME280;10167;42.852;23.042;2022-11-24T10:31:50;94327.88;;;7.04;100.00
20013;BME280;10167;42.852;23.042;2022-11-24T10:34:24;94341.41;;;7.08;100.00
20013;BME280;10167;42.852;23.042;2022-11-24T10:36:59;94342.78;;;7.10;100.00
20013;BME280;10167;42.852;23.042;2022-11-24T10:39:35;94334.19;;;7.03;100.00
20013;BME280;10167;42.852;23.042;2022-11-24T10:42:14;94331.69;;;7.08;100.00
20013;BME280;10167;42.852;23.042;2022-11-24T10:44:58;94336.94;;;7.08;100.00
20013;BME280;10167;42.852;23.042;2022-11-24T10:47:30;94340.13;;;6.99;100.00
20013;BME280;10167;42.852;23.042;2022-11-24T10:50:25;94334.38;;;6.90;100.00
20013;BME280;10167;42.852;23.042;2022-11-24T10:53:01;94333.72;;;7.06;100.00
20013;BME280;10167;42.852;23.042;2022-11-24T10:56:00;94338.53;;;7.09;100.00
20013;BME280;10167;42.852;23.042;2022-11-24T10:58:33;94339.91;;;7.23;100.00
20013;BME280;10167;42.852;23.042;2022-11-24T11:01:26;94340.69;;;7.36;100.00
20013;BME280;10167;42.852;23.042;2022-11-24T11:04:00;94331.66;;;7.43;100.00
20013;BME280;10167;42.852;23.042;2022-11-24T11:06:30;94322.59;;;7.51;100.00
20013;BME280;10167;42.852;23.042;2022-11-24T11:09:17;94325.09;;;7.57;100.00
20013;BME280;10167;42.852;23.042;2022-11-24T11:11:48;94323.03;;;7.59;100.00
20013;BME280;10167;42.852;23.042;2022-11-24T11:14:30;94326.91;;;7.69;100.00
20013;BME280;10167;42.852;23.042;2022-11-24T11:17:01;94338.03;;;7.71;100.00
20013;BME280;10167;42.852;23.042;2022-11-24T11:19:34;94335.50;;;7.76;100.00
20013;BME280;10167;42.852;23.042;2022-11-24T11:22:26;94348.72;;;7.64;100.00
20013;BME280;10167;42.852;23.042;2022-11-24T11:25:18;94340.56;;;7.65;100.00
20013;BME280;10167;42.852;23.042;2022-11-24T11:27:49;94347.88;;;7.87;100.00
20013;BME280;10167;42.852;23.042;2022-11-24T11:30:23;94346.47;;;7.96;100.00
20013;BME280;10167;42.852;23.042;2022-11-24T11:33:21;94353.34;;;7.97;100.00
20013;BME280;10167;42.852;23.042;2022-11-24T11:36:12;94355.31;;;8.18;100.00
20013;BME280;10167;42.852;23.042;2022-11-24T11:38:43;94343.94;;;8.01;100.00
20013;BME280;10167;42.852;23.042;2022-11-24T11:41:19;94343.16;;;7.89;100.00
20013;BME280;10167;42.852;23.042;2022-11-24T11:43:56;94347.66;;;8.17;100.00
20013;BME280;10167;42.852;23.042;2022-11-24T11:46:31;94347.38;;;8.30;100.00
20013;BME280;10167;42.852;23.042;2022-11-24T11:49:01;94345.63;;;8.07;100.00
20013;BME280;10167;42.852;23.042;2022-11-24T11:51:42;94346.72;;;7.71;100.00
20013;BME280;10167;42.852;23.042;2022-11-24T11:54:50;94351.91;;;7.66;100.00
20013;BME280;10167;42.852;23.042;2022-11-24T11:57:33;94344.72;;;7.50;100.00
20013;BME280;10167;42.852;23.042;2022-11-24T12:00:10;94350.56;;;7.52;100.00
20013;BME280;10167;42.852;23.042;2022-11-24T12:05:59;94358.81;;;7.44;100.00
20013;BME280;10167;42.852;23.042;2022-11-24T12:08:59;94347.56;;;7.48;100.00
20013;BME280;10167;42.852;23.042;2022-11-24T12:11:57;94360.16;;;7.46;100.00
20013;BME280;10167;42.852;23.042;2022-11-24T12:14:41;94356.41;;;7.31;100.00
20013;BME280;10167;42.852;23.042;2022-11-24T12:17:31;94359.94;;;7.48;100.00
20013;BME280;10167;42.852;23.042;2022-11-24T12:20:21;94346.53;;;7.38;100.00
20013;BME280;10167;42.852;23.042;2022-11-24T12:23:00;94354.44;;;7.26;100.00
20013;BME280;10167;42.852;23.042;2022-11-24T12:25:37;94362.78;;;7.35;100.00
20013;BME280;10167;42.852;23.042;2022-11-24T12:28:19;94351.47;;;7.34;100.00
20013;BME280;10167;42.852;23.042;2022-11-24T12:31:02;94352.03;;;7.36;100.00
20013;BME280;10167;42.852;23.042;2022-11-24T12:33:57;94353.63;;;7.49;100.00
20013;BME280;10167;42.852;23.042;2022-11-24T12:36:42;94355.22;;;7.61;100.00
20013;BME280;10167;42.852;23.042;2022-11-24T12:39:17;94358.41;;;7.87;100.00
20013;BME280;10167;42.852;23.042;2022-11-24T12:41:59;94352.56;;;7.73;100.00
20013;BME280;10167;42.852;23.042;2022-11-24T12:44:53;94351.75;;;7.84;100.00
20013;BME280;10167;42.852;23.042;2022-11-24T12:47:37;94353.00;;;7.82;100.00
20013;BME280;10167;42.852;23.042;2022-11-24T12:50:17;94355.84;;;7.92;100.00
20013;BME280;10167;42.852;23.042;2022-11-24T12:52:49;94356.09;;;7.90;100.00
20013;BME280;10167;42.852;23.042;2022-11-24T12:55:28;94355.97;;;7.97;100.00
20013;BME280;10167;42.852;23.042;2022-11-24T12:58:05;94360.28;;;8.03;100.00
20013;BME280;10167;42.852;23.042;2022-11-24T13:00:45;94361.59;;;8.00;100.00
20013;BME280;10167;42.852;23.042;2022-11-24T13:03:26;94365.53;;;8.15;100.00
20013;BME280;10167;42.852;23.042;2022-11-24T13:06:02;94362.72;;;7.93;100.00
20013;BME280;10167;42.852;23.042;2022-11-24T13:08:36;94363.06;;;7.96;100.00
20013;BME280;10167;42.852;23.042;2022-11-24T13:11:51;94366.28;;;7.98;100.00
20013;BME280;10167;42.852;23.042;2022-11-24T13:14:31;94377.75;;;7.92;100.00
20013;BME280;10167;42.852;23.042;2022-11-24T13:17:23;94375.72;;;7.83;100.00
20013;BME280;10167;42.852;23.042;2022-11-24T13:20:15;94377.78;;;7.69;100.00
20013;BME280;10167;42.852;23.042;2022-11-24T13:22:50;94381.00;;;7.71;100.00
20013;BME280;10167;42.852;23.042;2022-11-24T13:25:23;94379.53;;;7.63;100.00
20013;BME280;10167;42.852;23.042;2022-11-24T13:27:57;94370.38;;;7.54;100.00
20013;BME280;10167;42.852;23.042;2022-11-24T13:33:38;94372.06;;;7.60;100.00
20013;BME280;10167;42.852;23.042;2022-11-24T13:36:32;94376.19;;;7.68;100.00